Time;durP1;ratioP1;P1;durP2;ratioP2;P2;SDS_P1;SDS_P2;PMS_P1;PMS_P2;Temp;Humidity;BMP_temperature;BMP_pressure;BME280_temperature;BME280_humidity;BME280_pressure;Samples;Min_cycle;Max_cycle;Signal;HPM_P1;HPM_P2
2022/06/21 00:00:41;;;;;;;1.07;1.07;;;15.80;99.90;;;;;;5026041;28;20210;-75
2022/06/21 00:03:10;;;;;;;2.10;1.47;;;15.80;99.90;;;;;;5021409;28;20291;-75
2022/06/21 00:05:40;;;;;;;1.40;1.30;;;15.70;99.90;;;;;;5030533;28;20230;-75
2022/06/21 00:08:12;;;;;;;1.83;1.40;;;15.70;99.90;;;;;;5026308;28;20231;-75
2022/06/21 00:10:41;;;;;;;2.80;1.17;;;15.60;99.90;;;;;;5024883;28;20203;-75
2022/06/21 00:13:13;;;;;;;1.70;1.60;;;15.60;99.90;;;;;;5016459;28;20238;-75
2022/06/21 00:15:40;;;;;;;3.30;1.37;;;15.60;99.90;;;;;;5014341;28;20246;-75
2022/06/21 00:18:11;;;;;;;1.50;1.40;;;15.60;99.90;;;;;;5022573;28;20214;-75
2022/06/21 00:20:38;;;;;;;1.23;1.10;;;15.50;99.90;;;;;;5014782;28;20199;-75
2022/06/21 00:23:06;;;;;;;1.20;0.90;;;15.40;99.90;;;;;;5027525;28;20216;-76
2022/06/21 00:25:33;;;;;;;1.20;1.10;;;15.30;99.90;;;;;;5014707;28;20226;-75
2022/06/21 00:28:01;;;;;;;1.27;1.07;;;15.30;99.90;;;;;;5026812;28;20279;-74
2022/06/21 00:30:28;;;;;;;1.33;1.10;;;15.30;99.90;;;;;;5025732;28;20222;-74
2022/06/21 00:32:56;;;;;;;1.30;1.20;;;15.30;99.90;;;;;;5030618;28;20214;-74
2022/06/21 00:35:25;;;;;;;0.90;0.90;;;15.20;99.90;;;;;;5020507;28;20202;-75
2022/06/21 00:37:53;;;;;;;1.00;0.90;;;15.20;99.90;;;;;;5014020;28;20207;-76
2022/06/21 00:40:25;;;;;;;1.30;1.20;;;15.10;99.90;;;;;;5020888;28;20215;-75
2022/06/21 00:42:56;;;;;;;1.13;1.03;;;15.10;99.90;;;;;;5021308;28;20293;-75
2022/06/21 00:45:31;;;;;;;1.77;0.97;;;15.00;99.90;;;;;;5014281;28;20206;-75
2022/06/21 00:48:01;;;;;;;0.90;0.90;;;15.00;99.90;;;;;;5018734;28;20245;-75
2022/06/21 00:50:33;;;;;;;1.33;1.17;;;14.90;99.90;;;;;;5023296;28;20207;-75
2022/06/21 00:53:05;;;;;;;1.57;1.40;;;14.80;99.90;;;;;;5017015;28;20203;-75
2022/06/21 00:55:41;;;;;;;1.60;1.20;;;14.70;99.90;;;;;;5020858;28;20203;-75
2022/06/21 00:58:12;;;;;;;1.90;1.50;;;14.70;99.90;;;;;;5017326;28;20202;-75
2022/06/21 01:00:50;;;;;;;1.87;1.77;;;14.70;99.90;;;;;;5032308;28;20261;-74
2022/06/21 01:03:21;;;;;;;2.63;1.87;;;14.70;99.90;;;;;;5018204;28;20199;-74
2022/06/21 01:05:49;;;;;;;2.23;2.13;;;14.70;99.90;;;;;;5025090;28;20200;-73
2022/06/21 01:08:21;;;;;;;2.80;2.10;;;14.80;99.90;;;;;;5020915;28;20223;-73
2022/06/21 01:10:51;;;;;;;2.77;2.57;;;14.80;99.90;;;;;;5027144;28;20199;-73
2022/06/21 01:13:21;;;;;;;2.80;2.47;;;14.80;99.90;;;;;;5019981;28;20226;-73
2022/06/21 01:15:51;;;;;;;3.17;2.60;;;14.70;99.90;;;;;;5024162;28;20262;-74
2022/06/21 01:18:21;;;;;;;2.63;2.37;;;14.80;99.90;;;;;;5020783;28;20298;-74
2022/06/21 01:20:51;;;;;;;3.37;3.00;;;14.80;99.90;;;;;;5027929;28;20298;-74
2022/06/21 01:23:41;;;;;;;3.00;2.80;;;14.70;99.90;;;;;;5029088;28;20225;-73
2022/06/21 01:26:28;;;;;;;2.77;2.57;;;14.70;99.90;;;;;;5019483;28;20573;-73
2022/06/21 01:28:56;;;;;;;2.90;2.70;;;14.70;99.90;;;;;;5026643;28;20234;-73
2022/06/21 01:31:23;;;;;;;2.93;2.73;;;14.60;99.90;;;;;;5026928;28;20210;-73
2022/06/21 01:33:49;;;;;;;3.03;2.83;;;14.60;99.90;;;;;;5023976;28;20209;-73
2022/06/21 01:36:23;;;;;;;3.67;2.77;;;14.60;99.90;;;;;;5030331;28;20563;-72
2022/06/21 01:38:55;;;;;;;2.50;2.30;;;14.60;99.90;;;;;;5017302;28;20203;-72
2022/06/21 01:41:28;;;;;;;3.23;2.17;;;14.60;99.90;;;;;;5013578;28;20199;-73
2022/06/21 01:43:57;;;;;;;2.70;2.33;;;14.50;99.90;;;;;;5021164;28;20225;-73
2022/06/21 01:46:31;;;;;;;2.87;2.63;;;14.50;99.90;;;;;;5029124;28;20198;-73
2022/06/21 01:49:03;;;;;;;2.77;2.57;;;14.40;99.90;;;;;;5016904;28;20223;-72
2022/06/21 01:51:35;;;;;;;4.53;3.40;;;14.40;99.90;;;;;;5023169;28;20649;-73
2022/06/21 01:54:05;;;;;;;3.27;2.93;;;14.40;99.90;;;;;;5019968;28;20257;-73
2022/06/21 01:56:37;;;;;;;4.40;3.20;;;14.30;99.90;;;;;;5026983;28;20613;-73
2022/06/21 01:59:13;;;;;;;3.83;3.43;;;14.20;99.90;;;;;;5029689;28;20210;-72
2022/06/21 02:01:46;;;;;;;4.93;3.00;;;14.20;99.90;;;;;;5030132;28;20682;-73
2022/06/21 02:04:16;;;;;;;4.00;3.43;;;14.10;99.90;;;;;;5020773;28;20233;-73
2022/06/21 02:06:46;;;;;;;6.37;3.20;;;14.10;99.90;;;;;;5025163;28;20635;-74
2022/06/21 02:09:18;;;;;;;4.07;3.50;;;14.10;99.90;;;;;;5017748;28;20234;-73
2022/06/21 02:11:53;;;;;;;3.90;3.50;;;14.10;99.90;;;;;;5014305;28;20215;-73
2022/06/21 02:14:30;;;;;;;6.33;4.10;;;14.10;99.90;;;;;;5015099;28;20210;-73
2022/06/21 02:17:09;;;;;;;4.70;4.23;;;14.00;99.90;;;;;;5023152;28;20266;-73
2022/06/21 02:19:41;;;;;;;5.07;3.60;;;14.00;99.90;;;;;;5026852;28;20213;-73
2022/06/21 02:22:14;;;;;;;6.20;4.30;;;13.90;99.90;;;;;;5019840;28;20698;-73
2022/06/21 02:24:41;;;;;;;4.57;4.17;;;13.90;99.90;;;;;;5024567;28;20261;-74
2022/06/21 02:27:12;;;;;;;6.93;4.07;;;13.90;99.90;;;;;;5014605;28;20219;-74
2022/06/21 02:29:41;;;;;;;4.30;3.90;;;13.90;99.90;;;;;;5022735;28;20237;-73
2022/06/21 02:32:16;;;;;;;4.67;3.50;;;13.90;99.90;;;;;;5028896;28;20238;-73
2022/06/21 02:34:45;;;;;;;6.10;3.93;;;13.90;99.90;;;;;;5028875;28;20214;-73
2022/06/21 02:37:15;;;;;;;4.10;3.67;;;13.90;99.90;;;;;;5013127;28;20208;-73
2022/06/21 02:39:43;;;;;;;6.83;4.20;;;13.90;99.90;;;;;;5014926;28;20199;-73
2022/06/21 02:42:18;;;;;;;4.80;3.50;;;13.90;99.90;;;;;;5028763;28;20585;-74
2022/06/21 02:44:49;;;;;;;4.60;3.77;;;13.90;99.90;;;;;;5021510;28;20304;-74
2022/06/21 02:47:19;;;;;;;5.53;4.07;;;13.90;99.90;;;;;;5031818;28;20215;-74
2022/06/21 02:49:53;;;;;;;4.13;3.67;;;13.90;99.90;;;;;;5023322;28;20706;-74
2022/06/21 02:52:27;;;;;;;4.60;3.53;;;13.90;99.90;;;;;;5022048;28;20210;-74
2022/06/21 02:54:59;;;;;;;5.27;3.77;;;13.90;99.90;;;;;;5028343;28;20209;-73
2022/06/21 02:57:32;;;;;;;5.73;4.40;;;13.90;99.90;;;;;;5021525;28;20200;-74
2022/06/21 03:00:01;;;;;;;5.00;4.50;;;13.90;99.90;;;;;;5033583;28;20202;-74
2022/06/21 03:02:32;;;;;;;6.20;4.63;;;13.90;99.90;;;;;;5027577;28;20714;-74
2022/06/21 03:05:02;;;;;;;7.17;4.47;;;13.90;99.90;;;;;;5026545;28;20217;-74
2022/06/21 03:07:32;;;;;;;6.73;4.57;;;13.90;99.90;;;;;;5029612;28;20671;-74
2022/06/21 03:10:00;;;;;;;5.00;4.13;;;14.00;99.90;;;;;;5027046;28;20585;-74
2022/06/21 03:12:31;;;;;;;7.57;4.47;;;14.30;99.90;;;;;;5020633;28;20214;-74
2022/06/21 03:15:02;;;;;;;5.20;4.70;;;14.00;99.90;;;;;;5020897;28;20230;-74
2022/06/21 03:17:34;;;;;;;5.30;4.43;;;14.00;99.90;;;;;;5027363;28;20783;-74
2022/06/21 03:20:02;;;;;;;5.40;4.67;;;14.00;99.90;;;;;;5016946;28;20220;-74
2022/06/21 03:22:33;;;;;;;5.30;4.80;;;14.00;99.90;;;;;;5026187;28;20214;-74
2022/06/21 03:25:04;;;;;;;6.83;4.97;;;14.00;99.90;;;;;;5025662;28;20282;-74
2022/06/21 03:27:36;;;;;;;7.13;4.83;;;13.90;99.90;;;;;;5026298;28;20203;-74
2022/06/21 03:30:05;;;;;;;6.60;4.60;;;13.90;99.90;;;;;;5023619;28;20234;-74
2022/06/21 03:32:36;;;;;;;7.67;4.50;;;13.90;99.90;;;;;;5023379;28;20216;-73
2022/06/21 03:35:04;;;;;;;10.17;5.03;;;14.00;99.90;;;;;;5037555;28;20234;-74
2022/06/21 03:37:31;;;;;;;6.10;4.90;;;14.00;99.90;;;;;;5019300;28;20204;-74
2022/06/21 03:42:47;;;;;;;6.77;4.43;;;14.10;99.90;;;;;;5019831;28;20206;-74
2022/06/21 03:45:20;;;;;;;6.67;4.00;;;14.10;99.90;;;;;;5021089;28;20241;-74
2022/06/21 03:47:52;;;;;;;5.23;4.17;;;14.00;99.90;;;;;;5020642;28;20195;-73
2022/06/21 03:50:26;;;;;;;5.67;3.53;;;14.10;99.90;;;;;;5025857;28;20239;-74
2022/06/21 03:53:02;;;;;;;6.07;4.30;;;14.10;99.90;;;;;;5023546;28;20203;-74
2022/06/21 03:55:37;;;;;;;4.87;4.40;;;14.10;99.90;;;;;;5028568;28;20205;-74
2022/06/21 03:58:16;;;;;;;7.20;4.43;;;14.10;99.90;;;;;;5021202;28;20198;-74
2022/06/21 04:00:48;;;;;;;7.17;4.23;;;14.20;99.90;;;;;;5029212;28;20206;-74
2022/06/21 04:03:23;;;;;;;6.10;4.40;;;14.20;99.90;;;;;;5020608;28;20199;-74
2022/06/21 04:05:54;;;;;;;6.23;4.10;;;14.20;99.90;;;;;;5018213;28;20211;-74
2022/06/21 04:08:26;;;;;;;5.33;3.97;;;14.30;99.90;;;;;;5031061;28;20207;-73
2022/06/21 04:11:00;;;;;;;6.00;4.00;;;14.30;99.90;;;;;;5025514;28;20219;-76
2022/06/21 04:13:40;;;;;;;4.57;4.17;;;14.30;99.90;;;;;;5033984;28;20225;-76
2022/06/21 04:16:13;;;;;;;7.17;4.30;;;14.30;99.90;;;;;;5020477;28;20235;-76
2022/06/21 04:18:47;;;;;;;4.30;4.00;;;14.40;99.90;;;;;;5028596;28;20598;-75
2022/06/21 04:21:19;;;;;;;6.77;4.03;;;14.40;99.90;;;;;;5021484;28;20638;-76
2022/06/21 04:23:51;;;;;;;4.00;3.50;;;14.40;99.90;;;;;;5016683;28;20203;-75
2022/06/21 04:26:25;;;;;;;5.00;3.77;;;14.50;99.90;;;;;;5025933;28;20202;-76
2022/06/21 04:29:00;;;;;;;5.97;4.40;;;14.50;99.90;;;;;;5017953;28;20317;-76
2022/06/21 04:31:32;;;;;;;4.70;3.63;;;14.50;99.90;;;;;;5018112;28;20238;-75
2022/06/21 04:34:04;;;;;;;5.70;3.63;;;14.60;99.90;;;;;;5033410;28;20213;-75
2022/06/21 04:36:37;;;;;;;4.80;3.90;;;14.50;99.90;;;;;;5027601;28;20573;-75
2022/06/21 04:39:09;;;;;;;3.67;3.33;;;14.50;99.90;;;;;;5024330;28;20570;-75
2022/06/21 04:41:42;;;;;;;4.00;3.67;;;14.50;99.90;;;;;;5019450;28;20666;-75
2022/06/21 04:44:15;;;;;;;4.33;3.50;;;14.40;99.90;;;;;;5014935;28;20208;-75
2022/06/21 04:46:47;;;;;;;4.63;2.90;;;14.40;99.90;;;;;;5016025;28;20664;-75
2022/06/21 04:49:17;;;;;;;3.30;3.00;;;14.40;99.90;;;;;;5024684;28;20281;-75
2022/06/21 04:51:49;;;;;;;3.43;3.07;;;14.40;99.90;;;;;;5014771;28;20200;-75
2022/06/21 04:54:24;;;;;;;7.10;3.20;;;14.40;99.90;;;;;;5020301;28;20219;-75
2022/06/21 04:56:58;;;;;;;4.07;3.67;;;14.50;99.90;;;;;;5021818;28;20190;-75
2022/06/21 04:59:30;;;;;;;3.60;3.30;;;14.60;99.90;;;;;;5025142;28;20581;-75
2022/06/21 05:01:58;;;;;;;3.47;3.00;;;14.70;99.90;;;;;;5019604;28;20213;-75
2022/06/21 05:04:28;;;;;;;4.50;2.93;;;14.80;99.90;;;;;;5027892;28;20210;-76
2022/06/21 05:06:57;;;;;;;3.87;3.50;;;14.90;99.90;;;;;;5021920;28;20229;-75
2022/06/21 05:09:27;;;;;;;6.07;3.17;;;14.90;99.90;;;;;;5019228;28;20261;-76
2022/06/21 05:11:58;;;;;;;5.63;4.07;;;14.90;99.90;;;;;;5029500;28;20213;-75
2022/06/21 05:14:30;;;;;;;5.77;3.37;;;14.90;99.90;;;;;;5020507;28;20286;-74
2022/06/21 05:16:57;;;;;;;4.17;3.40;;;14.90;99.90;;;;;;5017509;28;20243;-74
2022/06/21 05:19:28;;;;;;;7.73;3.50;;;14.80;99.90;;;;;;5020430;28;20217;-74
2022/06/21 05:22:00;;;;;;;5.53;3.07;;;14.80;99.90;;;;;;5015064;28;20670;-74
2022/06/21 05:24:27;;;;;;;4.77;3.30;;;14.70;99.90;;;;;;5016636;28;20230;-75
2022/06/21 05:27:04;;;;;;;6.40;3.53;;;14.70;99.90;;;;;;5015665;28;20756;-72
2022/06/21 05:29:36;;;;;;;4.20;3.27;;;14.70;99.90;;;;;;5017597;28;20226;-72
2022/06/21 05:32:08;;;;;;;4.57;3.80;;;14.70;99.90;;;;;;5015881;28;20222;-72
2022/06/21 05:34:42;;;;;;;4.20;3.27;;;14.70;99.90;;;;;;5026706;28;20198;-72
2022/06/21 05:37:21;;;;;;;5.60;3.93;;;14.60;99.90;;;;;;5016582;28;20203;-74
2022/06/21 05:39:51;;;;;;;8.73;4.07;;;14.60;99.90;;;;;;5024480;28;20207;-77
2022/06/21 05:42:21;;;;;;;5.37;3.73;;;14.50;99.90;;;;;;5027949;28;20237;-76
2022/06/21 05:44:52;;;;;;;5.40;3.47;;;14.50;99.90;;;;;;5021709;28;20207;-76
2022/06/21 05:47:23;;;;;;;7.37;4.63;;;14.60;99.90;;;;;;5018045;28;20256;-71
2022/06/21 05:49:51;;;;;;;6.63;4.87;;;14.50;99.90;;;;;;5027015;28;20287;-71
2022/06/21 05:52:23;;;;;;;7.77;5.03;;;14.40;99.90;;;;;;5013157;28;20199;-72
2022/06/21 05:54:56;;;;;;;7.93;5.10;;;14.40;99.90;;;;;;5014577;28;20207;-71
2022/06/21 05:57:25;;;;;;;7.53;5.30;;;14.30;99.90;;;;;;5020779;28;20206;-72
2022/06/21 05:59:53;;;;;;;6.53;5.10;;;14.30;99.90;;;;;;5020315;28;20207;-72
2022/06/21 06:02:28;;;;;;;8.23;5.87;;;14.30;99.90;;;;;;5017242;28;20215;-72
2022/06/21 06:05:03;;;;;;;8.90;5.37;;;14.30;99.90;;;;;;5022375;28;20263;-71
2022/06/21 06:07:35;;;;;;;6.47;5.63;;;14.30;99.90;;;;;;5014173;28;20245;-71
2022/06/21 06:10:04;;;;;;;6.07;5.47;;;14.20;99.90;;;;;;5014939;28;20215;-72
2022/06/21 06:12:34;;;;;;;7.60;5.47;;;14.20;99.90;;;;;;5017680;28;20211;-69
2022/06/21 06:15:06;;;;;;;4.50;4.00;;;14.20;99.90;;;;;;5016447;28;20672;-72
2022/06/21 06:17:41;;;;;;;4.87;3.33;;;14.20;99.90;;;;;;5017910;28;20231;-72
2022/06/21 06:20:17;;;;;;;6.50;3.40;;;14.50;99.90;;;;;;5015421;28;20203;-73
2022/06/21 06:22:47;;;;;;;5.07;2.90;;;14.60;99.90;;;;;;5020390;28;20194;-74
2022/06/21 06:25:19;;;;;;;3.27;2.40;;;14.80;99.90;;;;;;5019843;28;20226;-73
2022/06/21 06:27:56;;;;;;;4.57;3.10;;;15.00;99.90;;;;;;5027096;28;20665;-73
2022/06/21 06:30:32;;;;;;;5.67;2.80;;;15.10;99.90;;;;;;5015843;28;20230;-75
2022/06/21 06:33:21;;;;;;;4.80;3.20;;;15.20;99.90;;;;;;5017176;28;20293;-75
2022/06/21 06:35:50;;;;;;;6.53;3.30;;;15.20;99.90;;;;;;5018775;28;20287;-73
2022/06/21 06:38:18;;;;;;;3.67;2.97;;;15.30;99.90;;;;;;5014804;28;20206;-73
2022/06/21 06:40:48;;;;;;;3.50;3.20;;;15.30;99.90;;;;;;5016130;28;20199;-73
2022/06/21 06:43:22;;;;;;;5.63;3.43;;;15.30;99.90;;;;;;5019966;28;20207;-73
2022/06/21 06:45:51;;;;;;;7.40;3.67;;;15.20;99.90;;;;;;5016280;28;20203;-75
2022/06/21 06:48:24;;;;;;;3.60;3.03;;;15.30;99.90;;;;;;5022738;28;20294;-75
2022/06/21 06:50:55;;;;;;;6.27;2.63;;;15.30;99.90;;;;;;5016056;28;20225;-75
2022/06/21 06:53:29;;;;;;;3.10;2.10;;;15.30;99.90;;;;;;5017857;28;20540;-75
2022/06/21 06:56:00;;;;;;;5.43;2.00;;;15.40;99.90;;;;;;5015432;28;20195;-75
2022/06/21 06:58:33;;;;;;;2.93;2.20;;;15.40;99.90;;;;;;5014526;28;20214;-78
2022/06/21 07:01:04;;;;;;;3.83;2.40;;;15.40;99.90;;;;;;5029990;28;20207;-75
2022/06/21 07:03:35;;;;;;;3.93;1.70;;;15.30;99.90;;;;;;5016741;28;20294;-70
2022/06/21 07:06:05;;;;;;;2.27;1.60;;;15.10;99.90;;;;;;5015267;28;20203;-74
2022/06/21 07:08:37;;;;;;;4.03;1.93;;;14.90;99.90;;;;;;5011443;28;20214;-73
2022/06/21 07:11:15;;;;;;;2.57;2.00;;;14.80;99.90;;;;;;5016894;28;20218;-74
2022/06/21 07:13:42;;;;;;;4.03;2.60;;;14.60;99.90;;;;;;5017322;28;20627;-73
2022/06/21 07:16:15;;;;;;;2.90;2.27;;;14.50;99.90;;;;;;5021168;28;20235;-75
2022/06/21 07:18:45;;;;;;;3.70;2.50;;;14.40;99.90;;;;;;5020512;28;20233;-74
2022/06/21 07:21:15;;;;;;;4.33;2.57;;;14.40;99.90;;;;;;5025188;28;20298;-77
2022/06/21 07:23:42;;;;;;;3.80;2.03;;;14.40;99.90;;;;;;5023899;28;20265;-76
2022/06/21 07:26:15;;;;;;;2.43;2.20;;;14.40;99.90;;;;;;5019122;28;20298;-74
2022/06/21 07:28:45;;;;;;;2.30;2.10;;;14.60;99.90;;;;;;5016343;28;20223;-76
2022/06/21 07:31:20;;;;;;;4.57;3.43;;;14.50;99.90;;;;;;5022105;28;20242;-77
2022/06/21 07:33:53;;;;;;;2.53;1.90;;;14.50;99.90;;;;;;5020767;28;20210;-75
2022/06/21 07:36:22;;;;;;;3.00;1.40;;;14.40;99.90;;;;;;5021441;28;20266;-76
2022/06/21 07:38:53;;;;;;;2.90;1.90;;;14.30;99.90;;;;;;5025483;28;20297;-75
2022/06/21 07:41:25;;;;;;;3.07;1.53;;;14.20;99.90;;;;;;5024960;28;20202;-77
2022/06/21 07:43:56;;;;;;;2.97;1.57;;;14.20;99.90;;;;;;5031893;28;20203;-77
2022/06/21 07:46:29;;;;;;;1.60;1.47;;;14.00;99.90;;;;;;5035290;28;20206;-79
2022/06/21 07:49:00;;;;;;;2.30;1.90;;;13.90;99.90;;;;;;5024565;28;20262;-79
2022/06/21 07:51:33;;;;;;;2.17;1.77;;;13.90;99.90;;;;;;5021486;28;20709;-78
2022/06/21 07:54:07;;;;;;;3.23;2.40;;;13.90;99.90;;;;;;5017302;28;20213;-76
2022/06/21 07:56:40;;;;;;;3.37;2.00;;;13.80;99.90;;;;;;5023480;28;20210;-75
2022/06/21 07:59:18;;;;;;;2.13;1.93;;;13.80;99.90;;;;;;5018259;28;20209;-75
2022/06/21 08:07:29;;;;;;;4.73;2.20;;;13.80;99.90;;;;;;5016743;28;20214;-75
2022/06/21 08:10:00;;;;;;;3.37;2.30;;;13.80;99.90;;;;;;5025752;28;20409;-76
2022/06/21 08:12:28;;;;;;;4.10;2.70;;;13.80;99.90;;;;;;5026937;28;20288;-75
2022/06/21 08:14:55;;;;;;;3.03;2.57;;;13.80;99.90;;;;;;5019685;28;20637;-75
2022/06/21 08:17:32;;;;;;;4.03;2.77;;;13.90;99.90;;;;;;5027590;28;20246;-75
2022/06/21 08:20:05;;;;;;;3.57;2.70;;;13.90;99.90;;;;;;5031004;28;20241;-75
2022/06/21 08:22:38;;;;;;;3.47;2.73;;;13.90;99.90;;;;;;5024589;28;20214;-76
2022/06/21 08:25:17;;;;;;;3.43;3.13;;;14.00;99.90;;;;;;5017179;28;20195;-75
2022/06/21 08:27:51;;;;;;;3.27;2.00;;;14.00;99.90;;;;;;5015943;28;20324;-77
2022/06/21 08:30:22;;;;;;;4.17;2.47;;;14.00;99.90;;;;;;5019332;28;20233;-75
2022/06/21 08:32:55;;;;;;;3.37;2.20;;;13.90;99.90;;;;;;5021016;28;20215;-73
2022/06/21 08:35:29;;;;;;;5.33;2.30;;;13.80;99.90;;;;;;5019363;28;20211;-76
2022/06/21 08:38:01;;;;;;;2.30;2.10;;;13.70;99.90;;;;;;5024113;28;20570;-73
2022/06/21 08:41:09;;;;;;;3.47;1.93;;;13.70;99.90;;;;;;5016514;28;20624;-74
2022/06/21 08:43:57;;;;;;;4.00;1.97;;;13.60;99.90;;;;;;4999539;28;20238;-75
2022/06/21 08:47:00;;;;;;;3.57;2.20;;;13.60;99.90;;;;;;5015007;28;20223;-75
2022/06/21 08:49:57;;;;;;;3.37;2.40;;;13.60;99.90;;;;;;4988392;28;20213;-75
2022/06/21 08:52:48;;;;;;;2.83;2.33;;;13.60;99.90;;;;;;5010574;28;20233;-74
2022/06/21 08:55:24;;;;;;;6.50;2.97;;;13.80;99.90;;;;;;5021624;28;20656;-74
2022/06/21 08:58:01;;;;;;;2.20;2.03;;;14.00;99.90;;;;;;5016285;28;20302;-76
2022/06/21 09:00:35;;;;;;;3.40;1.90;;;14.10;99.90;;;;;;5016633;28;20334;-77
2022/06/21 09:03:35;;;;;;;4.47;1.97;;;14.10;99.90;;;;;;5017215;28;20214;-77
2022/06/21 09:06:15;;;;;;;2.50;2.30;;;14.10;99.90;;;;;;5015982;28;20210;-76
2022/06/21 09:08:56;;;;;;;2.97;1.80;;;14.10;99.90;;;;;;5016415;28;20211;-77
2022/06/21 09:11:30;;;;;;;2.17;2.07;;;14.20;99.90;;;;;;5016917;28;20223;-76
2022/06/21 09:14:58;;;;;;;1.90;1.80;;;14.40;99.90;;;;;;5019009;28;20301;-74
2022/06/21 09:17:34;;;;;;;2.00;1.70;;;14.70;99.90;;;;;;4942569;28;20316;-76
2022/06/21 09:20:11;;;;;;;2.13;1.60;;;15.00;99.90;;;;;;4950920;29;20264;-77
2022/06/21 09:22:54;;;;;;;3.33;1.53;;;15.10;99.90;;;;;;4998493;28;20663;-77
2022/06/21 09:25:28;;;;;;;3.77;1.90;;;15.30;99.90;;;;;;5021239;28;20211;-76
2022/06/21 09:28:06;;;;;;;4.47;2.00;;;15.50;99.90;;;;;;5022747;28;20217;-76
2022/06/21 09:30:40;;;;;;;2.90;1.63;;;15.70;99.90;;;;;;5019369;28;20324;-75
2022/06/21 09:33:15;;;;;;;4.70;2.77;;;15.90;99.90;;;;;;5015481;28;20211;-79
2022/06/21 09:35:48;;;;;;;2.63;1.47;;;16.00;99.90;;;;;;5020020;28;20672;-77
2022/06/21 09:38:27;;;;;;;1.50;1.40;;;16.00;99.90;;;;;;5014737;28;20218;-77
2022/06/21 09:41:02;;;;;;;1.80;1.70;;;15.80;99.90;;;;;;5015725;28;20203;-77
2022/06/21 09:43:47;;;;;;;5.37;3.10;;;15.70;99.90;;;;;;5015976;28;20289;-76
2022/06/21 09:46:26;;;;;;;3.07;1.70;;;15.50;99.90;;;;;;5022949;28;20194;-75
2022/06/21 09:49:02;;;;;;;3.60;1.70;;;15.20;99.90;;;;;;5015074;28;20226;-77
2022/06/21 09:51:39;;;;;;;2.53;1.77;;;15.10;99.90;;;;;;5021146;28;20227;-77
2022/06/21 09:54:16;;;;;;;2.97;1.67;;;15.00;99.90;;;;;;5019978;28;20388;-78
2022/06/21 09:56:50;;;;;;;2.53;1.80;;;14.90;99.90;;;;;;5021858;28;20269;-79
2022/06/21 09:59:23;;;;;;;3.30;1.77;;;14.90;99.90;;;;;;5023821;28;20326;-79
2022/06/21 10:01:58;;;;;;;3.03;1.77;;;14.90;99.90;;;;;;5021378;28;20294;-80
2022/06/21 10:04:33;;;;;;;2.80;1.60;;;14.90;99.90;;;;;;5024678;28;20245;-76
2022/06/21 10:07:08;;;;;;;2.87;1.87;;;15.20;99.90;;;;;;5015795;28;20241;-76
2022/06/21 10:09:52;;;;;;;1.60;1.50;;;15.70;99.90;;;;;;5014323;28;20314;-76
2022/06/21 10:12:32;;;;;;;3.67;1.57;;;16.30;99.90;;;;;;5012703;28;20237;-77
2022/06/21 10:15:34;;;;;;;2.93;1.50;;;16.80;99.90;;;;;;5013575;28;20203;-76
2022/06/21 10:18:18;;;;;;;2.00;1.80;;;17.30;99.90;;;;;;5006408;28;20691;-76
2022/06/21 10:20:58;;;;;;;1.67;1.30;;;17.70;99.90;;;;;;5016626;28;20226;-75
2022/06/21 10:23:42;;;;;;;2.10;1.37;;;18.10;99.90;;;;;;5022619;28;20245;-77
2022/06/21 10:26:28;;;;;;;2.13;1.60;;;18.30;99.90;;;;;;5018522;28;20226;-76
2022/06/21 10:29:14;;;;;;;3.63;1.80;;;18.50;99.90;;;;;;5018979;28;20230;-75
2022/06/21 10:31:50;;;;;;;1.20;1.20;;;18.70;99.90;;;;;;5019898;28;20247;-75
2022/06/21 10:34:51;;;;;;;1.67;1.30;;;18.80;99.90;;;;;;5019486;28;20211;-76
2022/06/21 10:37:44;;;;;;;1.55;1.30;;;18.90;99.90;;;;;;5014911;28;20207;-76
2022/06/21 10:40:54;;;;;;;1.57;1.20;;;19.00;99.90;;;;;;5014960;28;20223;-76
2022/06/21 10:43:58;;;;;;;1.10;1.00;;;19.00;99.90;;;;;;5015287;28;20214;-76
2022/06/21 10:46:29;;;;;;;3.35;1.20;;;18.90;99.90;;;;;;5023673;28;20630;-76
2022/06/21 10:49:39;;;;;;;4.30;1.77;;;18.60;99.90;;;;;;5019268;28;20199;-76
2022/06/21 10:52:22;;;;;;;4.18;2.40;;;18.30;99.90;;;;;;5016708;28;20250;-76
2022/06/21 10:55:08;;;;;;;1.70;1.10;;;18.20;99.90;;;;;;5020978;28;20234;-74
2022/06/21 10:57:43;;;;;;;1.42;1.00;;;18.40;99.90;;;;;;5014030;28;20277;-74
2022/06/21 11:03:31;;;;;;;1.27;1.17;;;18.80;99.90;;;;;;5014580;28;20299;-76
2022/06/21 11:06:11;;;;;;;2.63;1.15;;;19.00;99.90;;;;;;5016591;28;20273;-74
2022/06/21 11:08:49;;;;;;;2.42;0.90;;;19.30;99.90;;;;;;5021511;28;20202;-76
2022/06/21 11:11:25;;;;;;;1.40;1.20;;;19.50;99.90;;;;;;5024064;28;20239;-79
2022/06/21 11:14:12;;;;;;;1.63;1.10;;;19.60;99.90;;;;;;5021154;28;20207;-75
2022/06/21 11:16:49;;;;;;;4.38;1.35;;;19.70;99.90;;;;;;5021324;28;20305;-75
2022/06/21 11:19:23;;;;;;;4.18;1.45;;;19.50;99.90;;;;;;5019937;28;20601;-77
2022/06/21 11:22:05;;;;;;;2.47;1.75;;;19.30;99.90;;;;;;5016241;28;20211;-76
2022/06/21 11:24:44;;;;;;;4.40;0.98;;;18.80;99.90;;;;;;5024932;28;20202;-75
2022/06/21 11:27:19;;;;;;;2.42;1.10;;;18.40;99.90;;;;;;5020999;28;21083;-74
2022/06/21 11:29:55;;;;;;;2.85;1.20;;;18.10;99.90;;;;;;5031710;28;20262;-74
2022/06/21 11:32:34;;;;;;;2.25;1.10;;;18.00;99.90;;;;;;5017977;28;20277;-73
2022/06/21 11:35:13;;;;;;;2.03;1.40;;;18.20;99.90;;;;;;5021606;28;20652;-74
2022/06/21 11:37:55;;;;;;;4.63;1.50;;;18.40;99.90;;;;;;5023289;28;20749;-74
2022/06/21 11:40:39;;;;;;;2.13;0.80;;;18.40;99.90;;;;;;5027666;28;20273;-75
2022/06/21 11:43:22;;;;;;;2.50;1.17;;;18.40;99.90;;;;;;5023358;28;20621;-74
2022/06/21 11:45:50;;;;;;;3.45;1.65;;;18.40;99.90;;;;;;5020855;28;20298;-74
2022/06/21 11:48:48;;;;;;;5.80;2.15;;;18.50;99.90;;;;;;5017791;28;20596;-73
2022/06/21 11:51:32;;;;;;;2.57;1.20;;;18.50;99.90;;;;;;5018293;28;20285;-73
2022/06/21 11:54:03;;;;;;;2.78;1.90;;;18.50;99.90;;;;;;5021157;28;20568;-74
2022/06/21 11:56:40;;;;;;;2.40;1.30;;;18.30;99.90;;;;;;5014538;28;20212;-74
2022/06/21 11:59:13;;;;;;;3.30;0.80;;;18.20;99.90;;;;;;5015169;28;20216;-74
2022/06/21 12:01:49;;;;;;;1.30;0.80;;;18.00;99.90;;;;;;5016734;28;20196;-73
2022/06/21 12:04:30;;;;;;;4.20;1.10;;;17.80;99.90;;;;;;5017026;28;20213;-74
2022/06/21 12:07:04;;;;;;;5.67;1.10;;;17.80;99.90;;;;;;5023820;28;20257;-73
2022/06/21 12:09:38;;;;;;;4.80;1.27;;;17.70;99.90;;;;;;5018622;28;20203;-74
2022/06/21 12:12:22;;;;;;;2.77;0.93;;;17.60;99.90;;;;;;5021468;28;20234;-76
2022/06/21 12:15:11;;;;;;;3.07;1.00;;;17.50;99.90;;;;;;5020526;28;20206;-74
2022/06/21 12:17:49;;;;;;;3.33;1.10;;;17.40;99.90;;;;;;5026933;28;20633;-74
2022/06/21 12:20:22;;;;;;;1.53;0.80;;;17.40;99.90;;;;;;5021017;28;20211;-75
2022/06/21 12:22:53;;;;;;;3.80;1.17;;;17.40;99.90;;;;;;5017386;28;20202;-75
2022/06/21 12:25:21;;;;;;;1.80;0.80;;;17.30;99.90;;;;;;5018417;28;20210;-75
2022/06/21 12:27:48;;;;;;;0.63;0.60;;;17.10;99.90;;;;;;5020854;28;20560;-77
2022/06/21 12:30:21;;;;;;;4.10;0.60;;;16.90;99.90;;;;;;5023988;28;20242;-75
2022/06/21 12:32:50;;;;;;;1.77;0.57;;;16.60;99.90;;;;;;5021836;28;20243;-76
2022/06/21 12:35:21;;;;;;;1.40;0.60;;;16.40;99.90;;;;;;5020781;28;20214;-75
2022/06/21 12:37:50;;;;;;;5.03;0.73;;;16.30;99.90;;;;;;5019451;28;20213;-75
2022/06/21 12:40:27;;;;;;;4.20;1.00;;;16.30;99.90;;;;;;5018241;28;20640;-74
2022/06/21 12:43:07;;;;;;;2.10;0.93;;;16.40;99.90;;;;;;5021154;28;20199;-74
2022/06/21 12:45:46;;;;;;;0.97;0.50;;;16.50;99.90;;;;;;5024997;28;20258;-74
2022/06/21 12:48:32;;;;;;;3.03;1.40;;;16.60;99.90;;;;;;5020391;28;20206;-74
2022/06/21 12:51:11;;;;;;;2.67;1.30;;;16.90;99.90;;;;;;5024812;28;20227;-74
2022/06/21 12:54:11;;;;;;;2.80;1.40;;;17.10;99.90;;;;;;5020554;28;20627;-74
2022/06/21 12:56:59;;;;;;;1.17;0.90;;;17.30;99.90;;;;;;5017749;28;20213;-75
2022/06/21 12:59:59;;;;;;;1.63;0.77;;;17.40;99.90;;;;;;5027390;28;20613;-74
2022/06/21 13:02:58;;;;;;;1.80;0.80;;;17.70;99.90;;;;;;5016823;28;20207;-75
2022/06/21 13:05:46;;;;;;;2.87;0.93;;;18.00;99.90;;;;;;5015890;28;20249;-75
2022/06/21 13:08:47;;;;;;;2.23;0.60;;;18.20;99.90;;;;;;5014898;28;20213;-76
2022/06/21 13:11:31;;;;;;;0.80;0.57;;;18.40;99.90;;;;;;5013893;28;20241;-74
2022/06/21 13:14:20;;;;;;;3.22;0.90;;;18.40;99.90;;;;;;5017935;28;20202;-73
2022/06/21 13:16:58;;;;;;;1.20;0.50;;;18.30;99.90;;;;;;5015383;28;20238;-74
2022/06/21 13:19:51;;;;;;;4.53;1.10;;;18.40;99.90;;;;;;5014213;28;20269;-74
2022/06/21 13:22:30;;;;;;;0.85;0.60;;;18.40;99.90;;;;;;5019793;28;20660;-75
2022/06/21 13:25:15;;;;;;;3.58;0.70;;;18.60;99.90;;;;;;5014847;28;20694;-74
2022/06/21 13:27:55;;;;;;;1.30;0.43;;;18.70;99.90;;;;;;5017460;28;20211;-73
2022/06/21 13:30:34;;;;;;;0.83;0.60;;;19.00;99.90;;;;;;5014495;28;20226;-74
2022/06/21 13:33:14;;;;;;;2.27;0.57;;;19.00;99.90;;;;;;5015746;28;20219;-74
2022/06/21 13:35:55;;;;;;;1.40;0.70;;;19.00;99.90;;;;;;5016294;28;20200;-75
2022/06/21 13:38:28;;;;;;;3.00;0.60;;;19.00;99.90;;;;;;5013251;28;20207;-74
2022/06/21 13:41:04;;;;;;;1.42;0.50;;;19.00;99.90;;;;;;5021190;28;20207;-73